Flight Track Log - Related Links

Times and Time Zones

All times are in EDT time to prevent confusion due to time zone crossing. See the UAL495 flight status page for this flight to view local times or setup timezone preferences in your user account.

Time Position Orientation Groundspeed Altitude Reporting Facility
EDT Latitude Longitude Course Direction KTS MPH feet Rate Location/Type
Mon 12:33:01 PM 39.8667 -104.5833 108° East 203 234 6,700  Level Denver TRACON
Mon 12:34:01 PM 39.8500 -104.5000 105° East 257 296 9,200 1,433 Climbing Denver TRACON
Mon 12:35:00 PM 39.8007 -104.2122 101° East  Level FlightAware Approximate
Mon 12:36:00 PM 39.7758 -104.0624 105° East  Level FlightAware Approximate
Mon 12:36:01 PM 39.8000 -104.3000 108° East 314 361 11,000  Level Denver TRACON
Mon 12:37:00 PM 39.7618 -103.9113 99° East  Level FlightAware Approximate
Mon 12:37:01 PM 39.8000 -104.1833 90° East 368 423 12,800  Level Denver TRACON
Mon 12:38:00 PM 39.7364 -103.7622 108° East  Level FlightAware Approximate
Mon 12:38:02 PM 39.7833 -104.0333 98° East 392 451 15,100  Level Denver TRACON
Mon 12:40:19 PM 39.7386 -103.7156 100° East 430 495 19,100 1,688 Climbing Denver Center
Mon 12:41:21 PM 39.7267 -103.5533 95° East 449 517 20,700 1,403 Climbing Denver Center
Mon 12:42:23 PM 39.7128 -103.3822 96° East 471 542 22,000 1,790 Climbing Denver Center
Mon 12:43:25 PM 39.6964 -103.1778 96° East 482 555 24,400 1,774 Climbing Denver Center
Mon 12:45:29 PM 39.6669 -102.8192 96° East 501 577 27,500 1,484 Climbing Denver Center
Mon 12:46:31 PM 39.6514 -102.6439 97° East 497 572 29,000 1,564 Climbing Denver Center
Mon 12:48:14 PM 39.6231 -102.3272 97° East 498 573 31,800 1,548 Climbing Kansas City Center
Mon 12:48:35 PM 39.6192 -102.2761 96° East 492 566 32,200 581 Climbing Denver Center
Mon 12:50:18 PM 39.5892 -101.9589 97° East 498 573 33,000 387 Climbing Kansas City Center
Mon 12:50:39 PM 39.5856 -101.9083 95° East 497 572 33,000  Level Denver Center
Mon 12:51:42 PM 39.5711 -101.7131 95° East 490 564 33,000  Level Denver Center
Mon 12:52:44 PM 39.5572 -101.5431 96° East 496 571 33,000  Level Denver Center
Mon 12:53:46 PM 39.5317 -101.3506 100° East 488 562 33,000  Level Denver Center
Mon 12:55:50 PM 39.4475 -101.0003 107° East 493 567 33,000  Level Denver Center
Mon 12:56:52 PM 39.4089 -100.8383 107° East 493 567 33,000  Level Denver Center
Mon 12:58:34 PM 39.3408 -100.5575 107° East 493 567 33,000  Level Kansas City Center
Mon 12:58:56 PM 39.3236 -100.4869 107° East 498 573 33,000  Level Denver Center
Mon 01:00:40 PM 39.2633 -100.2022 105° East 500 575 33,000  Level Kansas City Center
Mon 01:01:42 PM 39.2647 -100.0014 89° East 503 579 33,000  Level Kansas City Center
Mon 01:03:04 PM 39.2714 -99.7603 88° East 502 578 33,000  Level Denver Center
Mon 01:04:48 PM 39.2786 -99.4664 88° East 498 573 33,000  Level Kansas City Center
Mon 01:05:08 PM 39.2806 -99.3917 88° East 498 573 33,000 732 Level Denver Center
Mon 01:06:10 PM 39.2833 -99.2200 89° East 500 575 34,000 968 Climbing Denver Center
Mon 01:07:12 PM 39.2878 -99.0225 88° East 495 570 35,000 361 Climbing Denver Center
Mon 01:08:56 PM 39.2931 -98.7111 89° East 497 572 35,000  Level Kansas City Center
Mon 01:09:58 PM 39.2958 -98.5422 89° East 499 574 35,000  Level Kansas City Center
Mon 01:10:18 PM 39.2956 -98.4714 90° East 498 573 35,000  Level Denver Center
Mon 01:12:02 PM 39.3000 -98.1681 89° East 496 571 35,000  Level Kansas City Center
Mon 01:14:00 PM 39.3004 -97.8688 90° East  Level FlightAware Approximate
Mon 01:15:08 PM 39.3042 -97.6131 90° East 499 574 35,000  Level Kansas City Center
Mon 01:16:10 PM 39.3008 -97.4297 91° East 492 566 35,000  Level Kansas City Center
Mon 01:17:12 PM 39.2864 -97.2606 96° East 494 568 35,000  Level Kansas City Center
Mon 01:18:14 PM 39.2725 -97.0625 95° East 496 571 35,000  Level Kansas City Center
Mon 01:20:00 PM 39.2488 -96.7956 96° East  Level FlightAware Approximate
Mon 01:22:22 PM 39.2122 -96.3306 96° East 493 567 35,000  Level Kansas City Center
Mon 01:24:26 PM 39.1822 -95.9667 96° East 493 567 35,000  Level Kansas City Center
Mon 01:25:28 PM 39.1686 -95.7992 96° East 493 567 35,000  Level Kansas City Center
Mon 01:27:00 PM 39.1564 -95.7387 96° East  Level FlightAware Approximate
Mon 01:27:00 PM 39.1477 -95.5679 97° East  Level FlightAware Approximate
Mon 01:28:35 PM 39.1189 -95.2436 97° East 494 568 35,000  Level Kansas City Center
Mon 01:30:00 PM 39.0974 -95.0217 97° East  Level FlightAware Approximate
Mon 01:30:39 PM 39.0875 -94.8953 97° East 479 551 35,700  Level Kansas City Center
Mon 01:32:00 PM 39.0654 -94.6841 98° East  Level FlightAware Approximate
Mon 01:32:43 PM 39.0553 -94.5467 98° East 475 547 37,600  Level Kansas City Center
Mon 01:33:45 PM 39.0394 -94.3886 97° East 469 540 38,800 677 Climbing Kansas City Center
Mon 01:34:00 PM 39.0465 -94.5137 97° East  Level FlightAware Approximate
Mon 01:34:47 PM 39.0231 -94.2097 97° East 451 519 39,000  Level Kansas City Center
Mon 01:35:49 PM 39.0064 -94.0561 98° East 453 521 39,000  Level Kansas City Center
Mon 01:37:00 PM 38.9998 -93.8701 90° East  Level FlightAware Approximate
Mon 01:38:55 PM 39.0003 -93.5533 90° East 466 536 39,000  Level Kansas City Center
Mon 01:40:00 PM 39.0113 -93.3831 85° East  Level Estimated
Mon 01:40:59 PM 38.9986 -93.1839 85° East 468 539 39,000  Level Kansas City Center
Mon 01:42:00 PM 38.9831 -93.0242 90° East  Level FlightAware Approximate
Mon 01:44:00 PM 38.9923 -92.7667 90° East  Level FlightAware Approximate
Mon 01:45:07 PM 38.9917 -92.5233 91° East 457 526 39,000  Level Kansas City Center
Mon 01:46:09 PM 38.9894 -92.3597 91° East 456 525 39,000  Level Kansas City Center
Mon 01:47:11 PM 38.9858 -92.1647 91° East 454 522 39,000  Level Kansas City Center
Mon 01:48:13 PM 38.9839 -92.0033 91° East 451 519 39,000  Level Kansas City Center
Mon 01:49:00 PM 38.9753 -91.9236 90° East  Level FlightAware Approximate
Mon 01:50:00 PM 38.9734 -91.7664 91° East  Level FlightAware Approximate
Mon 01:50:17 PM 38.9781 -91.6800 91° East 452 520 39,000  Level Kansas City Center
Mon 01:51:19 PM 38.9744 -91.5158 92° East 455 524 39,000  Level Kansas City Center
Mon 01:52:21 PM 38.9711 -91.3519 91° East 457 526 39,000  Level Kansas City Center
Mon 01:53:23 PM 38.9672 -91.1831 92° East 459 528 39,000  Level Kansas City Center
Mon 01:54:25 PM 38.9678 -91.0233 90° East 461 531 39,000  Level Kansas City Center
Mon 01:55:27 PM 38.9736 -90.8247 88° East 463 533 39,000  Level Kansas City Center
Mon 01:56:29 PM 38.9764 -90.6597 89° East 462 532 39,000  Level Kansas City Center
Mon 01:57:31 PM 38.9803 -90.4958 88° East 458 527 39,000  Level Kansas City Center
Mon 01:59:00 PM 38.9818 -90.2626 89° East  Level FlightAware Approximate
Mon 01:59:36 PM 38.9864 -90.1797 89° East 437 503 39,000  Level Kansas City Center
Mon 02:00:38 PM 38.9883 -90.0261 89° East 430 495 39,000  Level Kansas City Center
Mon 02:01:40 PM 38.9908 -89.8511 89° East 429 494 39,000  Level Kansas City Center
Mon 02:02:42 PM 38.9925 -89.6858 89° East 429 494 39,000  Level Kansas City Center
Mon 02:03:44 PM 38.9942 -89.5325 89° East 429 494 39,000  Level Kansas City Center
Mon 02:04:46 PM 38.9950 -89.3672 90° East 429 494 39,000  Level Kansas City Center
Mon 02:05:48 PM 38.9961 -89.2136 89° East 430 495 39,000  Level Kansas City Center
Mon 02:06:50 PM 38.9964 -89.0608 90° East 429 494 39,000  Level Kansas City Center
Mon 02:07:52 PM 38.9997 -88.9222 88° East 430 495 39,000  Level Kansas City Center
Mon 02:08:54 PM 39.0014 -88.7400 89° East 428 493 39,000  Level Kansas City Center
Mon 02:10:40 PM 39.0006 -88.4881 90° East 429 494 39,000  Level Indianapolis Center
Mon 02:10:58 PM 39.0022 -88.4239 88° East 430 495 39,000  Level Kansas City Center
Mon 02:11:41 PM 39.0006 -88.3322 91° East 432 497 39,000  Level Indianapolis Center
Mon 02:12:43 PM 38.9994 -88.1783 90° East 430 495 39,000  Level Indianapolis Center
Mon 02:13:45 PM 39.0000 -88.0217 90° East 434 499 39,000  Level Indianapolis Center
Mon 02:15:48 PM 38.9575 -87.6803 99° East 441 507 39,000  Level Indianapolis Center
Mon 02:16:50 PM 38.9189 -87.5306 108° East 440 506 39,000  Level Indianapolis Center
Mon 02:18:00 PM 38.9125 -87.3499 93° East  Level FlightAware Approximate
Mon 02:18:53 PM 38.8419 -87.2275 93° East 443 510 39,000  Level Indianapolis Center
Mon 02:20:00 PM 38.8869 -87.0644 70° East  Level FlightAware Approximate
Mon 02:20:57 PM 38.7667 -86.9219 70° East 445 512 39,000  Level Indianapolis Center
Mon 02:21:58 PM 38.7306 -86.7675 107° East 447 514 39,000  Level Indianapolis Center
Mon 02:23:00 PM 38.7745 -86.6179 69° East  Level FlightAware Approximate
Mon 02:24:02 PM 38.7094 -86.4511 69° East 443 510 39,000  Level Indianapolis Center
Mon 02:26:00 PM 38.7288 -86.1480 98° East  Level Estimated
Mon 02:27:07 PM 38.6786 -85.9458 98° East 442 509 39,000  Level Indianapolis Center
Mon 02:28:09 PM 38.6689 -85.7942 95° East 438 504 39,000  Level Indianapolis Center
Mon 02:30:13 PM 38.6492 -85.4847 95° East 438 504 39,000  Level Indianapolis Center
Mon 02:31:15 PM 38.6389 -85.3281 95° East 442 509 39,000  Level Indianapolis Center
Mon 02:32:17 PM 38.6275 -85.1561 95° East 441 507 39,000  Level Indianapolis Center
Mon 02:33:19 PM 38.6181 -84.9978 94° East 444 511 39,000  Level Indianapolis Center
Mon 02:34:21 PM 38.6047 -84.8147 95° East 443 510 39,000  Level Indianapolis Center
Mon 02:35:23 PM 38.5936 -84.6578 95° East 442 509 39,000  Level Indianapolis Center
Mon 02:37:00 PM 38.5734 -84.4094 96° East  Level FlightAware Approximate
Mon 02:37:27 PM 38.5697 -84.3419 96° East 446 513 39,000  Level Indianapolis Center
Mon 02:38:29 PM 38.5583 -84.1833 95° East 446 513 39,000  Level Indianapolis Center
Mon 02:40:00 PM 38.5377 -83.9507 96° East  Level FlightAware Approximate
Mon 02:40:33 PM 38.5319 -83.8400 96° East 446 513 39,000  Level Indianapolis Center
Mon 02:42:00 PM 38.5104 -83.6179 97° East  Level FlightAware Approximate
Mon 02:43:39 PM 38.4936 -83.3678 96° East 445 512 39,000  Level Indianapolis Center
Mon 02:45:00 PM 38.5146 -83.1612 83° East  Level Estimated
Mon 02:46:44 PM 38.4517 -82.8706 83° East 445 512 39,000  Level Indianapolis Center
Mon 02:47:46 PM 38.4372 -82.7114 97° East 449 517 39,000  Level Indianapolis Center
Mon 02:48:48 PM 38.4231 -82.5544 97° East 446 513 39,000  Level Indianapolis Center
Mon 02:49:00 PM 38.4077 -82.5462 96° East  Level FlightAware Approximate
Mon 02:49:50 PM 38.4094 -82.4064 97° East 446 513 39,000  Level Indianapolis Center
Mon 02:50:52 PM 38.3950 -82.2503 97° East 444 511 39,000  Level Indianapolis Center
Mon 02:51:54 PM 38.3783 -82.0622 96° East 446 513 39,000 -121 Level Indianapolis Center
Mon 02:52:00 PM 38.6177 -82.0882 83° East  Level Estimated
Mon 02:54:00 PM 38.3327 -81.7445 92° East  Level FlightAware Approximate
Mon 02:54:59 PM 38.3444 -81.6019 92° East 439 505 38,500  Level Indianapolis Center
Mon 02:56:01 PM 38.3389 -81.4544 93° East 423 487 38,000 -484 Descending Indianapolis Center
Mon 02:57:03 PM 38.3356 -81.3078 92° East 419 482 37,500 -470 Descending Indianapolis Center
Mon 02:59:00 PM 38.3218 -81.0934 95° East  Level FlightAware Approximate
Mon 02:59:38 PM 38.3194 -80.9247 95° East 408 470 36,300  Level Washington Center
Mon 03:01:11 PM 38.3119 -80.6839 92° East 420 483 35,500 -559 Descending Indianapolis Center
Mon 03:01:36 PM 38.3081 -80.6142 94° East 421 484 35,200 -690 Descending Washington Center
Mon 03:02:38 PM 38.3056 -80.4683 91° East 416 479 34,500 -639 Descending Washington Center
Mon 03:03:38 PM 38.3325 -80.3194 77° East 416 479 33,900 -1,027 Descending Washington Center
Mon 03:06:20 PM 38.4247 -79.8989 74° East 448 516 30,700 -1,207 Descending Indianapolis Center
Mon 03:06:37 PM 38.4325 -79.8778 65° Northeast 442 509 30,300 -1,846 Descending Washington Center
Mon 03:07:38 PM 38.4625 -79.7336 75° East 434 499 28,300 -2,024 Descending Washington Center
Mon 03:09:26 PM 38.5178 -79.4533 76° East 403 464 24,600 -1,955 Descending Indianapolis Center
Mon 03:10:36 PM 38.5475 -79.3083 75° East 387 445 22,500 -1,603 Descending Washington Center
Mon 03:11:37 PM 38.5656 -79.1897 79° East 381 438 21,100 -1,537 Descending Washington Center
Mon 03:12:37 PM 38.5858 -79.0711 78° East 367 422 19,400 -1,587 Descending Washington Center
Mon 03:13:38 PM 38.6058 -78.9497 78° East 353 406 17,900 -1,516 Descending Washington Center
Mon 03:15:00 PM 38.6321 -78.7395 76° East  Level FlightAware Approximate
Mon 03:15:39 PM 38.6497 -78.7206 76° East 335 386 14,800  Level Washington Center
Mon 03:16:36 PM 38.6775 -78.6100 72° East 325 374 13,300 -1,513 Descending Washington Center
Mon 03:17:38 PM 38.7031 -78.4994 73° East 319 367 11,800 -1,067 Descending Washington Center
Mon 03:19:36 PM 38.7597 -78.3125 69° East 285 328 10,100 -1,123 Descending Washington Center
Mon 03:21:17 PM 38.7333 -78.1500 102° East 252 290 7,700 -1,154 Descending Potomac TRACON
Mon 03:22:38 PM 38.7131 -78.0500 105° East 253 291 6,600 -809 Descending Washington Center
Mon 03:23:38 PM 38.6897 -77.9694 110° East 248 285 5,800 -459 Descending Washington Center
Mon 03:28:18 PM 38.7333 -77.5667 85° East 226 260 4,000 -373 Descending Potomac TRACON
Mon 03:30:20 PM 38.7833 -77.4667 57° Northeast 210 242 3,300 -344 Descending Potomac TRACON

Login

Don't have an account? Register now (free) for customized features, flight alerts, and more!